sensor_id;sensor_type;location;lat;lon;timestamp;P1;durP1;ratioP1;P2;durP2;ratioP2
50759;SDS011;36733;48.442;-4.470;2022-07-24T00:01:56;3.92;;;1.25;;
50759;SDS011;36733;48.442;-4.470;2022-07-24T00:04:22;6.28;;;1.30;;
50759;SDS011;36733;48.442;-4.470;2022-07-24T00:06:47;3.00;;;1.10;;
50759;SDS011;36733;48.442;-4.470;2022-07-24T00:09:13;3.00;;;0.93;;
50759;SDS011;36733;48.442;-4.470;2022-07-24T00:11:38;5.00;;;1.30;;
50759;SDS011;36733;48.442;-4.470;2022-07-24T00:14:04;4.07;;;1.10;;
50759;SDS011;36733;48.442;-4.470;2022-07-24T00:16:29;4.97;;;1.30;;
50759;SDS011;36733;48.442;-4.470;2022-07-24T00:18:55;4.47;;;1.15;;
50759;SDS011;36733;48.442;-4.470;2022-07-24T00:21:21;3.35;;;1.27;;
50759;SDS011;36733;48.442;-4.470;2022-07-24T00:23:46;4.22;;;1.15;;
50759;SDS011;36733;48.442;-4.470;2022-07-24T00:26:11;2.97;;;0.88;;
50759;SDS011;36733;48.442;-4.470;2022-07-24T00:28:37;8.25;;;1.20;;
50759;SDS011;36733;48.442;-4.470;2022-07-24T00:31:03;5.32;;;1.33;;
50759;SDS011;36733;48.442;-4.470;2022-07-24T00:33:28;6.55;;;1.25;;
50759;SDS011;36733;48.442;-4.470;2022-07-24T00:35:54;5.18;;;1.10;;
50759;SDS011;36733;48.442;-4.470;2022-07-24T00:38:19;2.85;;;0.80;;
50759;SDS011;36733;48.442;-4.470;2022-07-24T00:40:45;3.85;;;1.98;;
50759;SDS011;36733;48.442;-4.470;2022-07-24T00:43:10;3.20;;;1.23;;
50759;SDS011;36733;48.442;-4.470;2022-07-24T00:45:36;2.97;;;1.13;;
50759;SDS011;36733;48.442;-4.470;2022-07-24T00:48:01;9.25;;;1.27;;
50759;SDS011;36733;48.442;-4.470;2022-07-24T00:50:27;3.33;;;1.00;;
50759;SDS011;36733;48.442;-4.470;2022-07-24T00:52:53;3.90;;;1.13;;
50759;SDS011;36733;48.442;-4.470;2022-07-24T00:55:18;3.15;;;0.80;;
50759;SDS011;36733;48.442;-4.470;2022-07-24T00:57:45;2.15;;;0.82;;
50759;SDS011;36733;48.442;-4.470;2022-07-24T01:00:14;3.67;;;1.00;;
50759;SDS011;36733;48.442;-4.470;2022-07-24T01:02:40;4.07;;;0.98;;
50759;SDS011;36733;48.442;-4.470;2022-07-24T01:05:07;4.43;;;1.00;;
50759;SDS011;36733;48.442;-4.470;2022-07-24T01:07:36;3.22;;;0.80;;
50759;SDS011;36733;48.442;-4.470;2022-07-24T01:10:02;3.97;;;1.00;;
50759;SDS011;36733;48.442;-4.470;2022-07-24T01:12:30;2.80;;;1.08;;
50759;SDS011;36733;48.442;-4.470;2022-07-24T01:14:56;6.38;;;0.85;;
50759;SDS011;36733;48.442;-4.470;2022-07-24T01:17:21;2.45;;;0.80;;
50759;SDS011;36733;48.442;-4.470;2022-07-24T01:19:47;2.15;;;0.80;;
50759;SDS011;36733;48.442;-4.470;2022-07-24T01:22:12;4.10;;;1.00;;
50759;SDS011;36733;48.442;-4.470;2022-07-24T01:24:38;2.35;;;0.80;;
50759;SDS011;36733;48.442;-4.470;2022-07-24T01:27:03;2.25;;;0.88;;
50759;SDS011;36733;48.442;-4.470;2022-07-24T01:29:29;7.03;;;1.00;;
50759;SDS011;36733;48.442;-4.470;2022-07-24T01:31:54;8.30;;;1.17;;
50759;SDS011;36733;48.442;-4.470;2022-07-24T01:34:19;3.00;;;0.90;;
50759;SDS011;36733;48.442;-4.470;2022-07-24T01:36:45;1.53;;;0.70;;
50759;SDS011;36733;48.442;-4.470;2022-07-24T01:39:10;2.33;;;0.70;;
50759;SDS011;36733;48.442;-4.470;2022-07-24T01:41:36;2.42;;;0.75;;
50759;SDS011;36733;48.442;-4.470;2022-07-24T01:44:01;2.30;;;0.68;;
50759;SDS011;36733;48.442;-4.470;2022-07-24T01:46:27;3.80;;;0.98;;
50759;SDS011;36733;48.442;-4.470;2022-07-24T01:48:52;3.05;;;0.95;;
50759;SDS011;36733;48.442;-4.470;2022-07-24T01:51:18;7.65;;;1.00;;
50759;SDS011;36733;48.442;-4.470;2022-07-24T01:53:43;3.13;;;0.73;;
50759;SDS011;36733;48.442;-4.470;2022-07-24T01:56:09;2.03;;;0.77;;
50759;SDS011;36733;48.442;-4.470;2022-07-24T01:58:34;2.77;;;0.73;;
50759;SDS011;36733;48.442;-4.470;2022-07-24T02:01:00;1.40;;;0.60;;
50759;SDS011;36733;48.442;-4.470;2022-07-24T02:03:25;1.65;;;0.70;;
50759;SDS011;36733;48.442;-4.470;2022-07-24T02:05:50;1.98;;;0.73;;
50759;SDS011;36733;48.442;-4.470;2022-07-24T02:08:16;3.00;;;0.75;;
50759;SDS011;36733;48.442;-4.470;2022-07-24T02:10:41;2.75;;;0.60;;
50759;SDS011;36733;48.442;-4.470;2022-07-24T02:13:07;3.75;;;0.68;;
50759;SDS011;36733;48.442;-4.470;2022-07-24T02:15:33;1.27;;;0.70;;
50759;SDS011;36733;48.442;-4.470;2022-07-24T02:17:59;1.55;;;0.65;;
50759;SDS011;36733;48.442;-4.470;2022-07-24T02:20:26;1.52;;;0.85;;
50759;SDS011;36733;48.442;-4.470;2022-07-24T02:22:52;2.20;;;0.80;;
50759;SDS011;36733;48.442;-4.470;2022-07-24T02:25:17;1.40;;;0.70;;
50759;SDS011;36733;48.442;-4.470;2022-07-24T02:27:43;2.05;;;0.90;;
50759;SDS011;36733;48.442;-4.470;2022-07-24T02:30:10;2.90;;;0.77;;
50759;SDS011;36733;48.442;-4.470;2022-07-24T02:32:37;3.88;;;0.73;;
50759;SDS011;36733;48.442;-4.470;2022-07-24T02:35:03;2.40;;;0.80;;
50759;SDS011;36733;48.442;-4.470;2022-07-24T02:37:29;1.60;;;0.63;;
50759;SDS011;36733;48.442;-4.470;2022-07-24T02:39:54;5.13;;;0.90;;
50759;SDS011;36733;48.442;-4.470;2022-07-24T02:42:20;4.70;;;1.00;;
50759;SDS011;36733;48.442;-4.470;2022-07-24T02:44:45;1.02;;;0.70;;
50759;SDS011;36733;48.442;-4.470;2022-07-24T02:47:11;4.30;;;0.90;;
50759;SDS011;36733;48.442;-4.470;2022-07-24T02:49:36;2.92;;;0.60;;
50759;SDS011;36733;48.442;-4.470;2022-07-24T02:52:02;3.60;;;0.80;;
50759;SDS011;36733;48.442;-4.470;2022-07-24T02:54:28;1.88;;;0.80;;
50759;SDS011;36733;48.442;-4.470;2022-07-24T02:56:54;1.08;;;0.52;;
50759;SDS011;36733;48.442;-4.470;2022-07-24T02:59:19;1.60;;;0.70;;
50759;SDS011;36733;48.442;-4.470;2022-07-24T03:01:45;6.95;;;0.65;;
50759;SDS011;36733;48.442;-4.470;2022-07-24T03:04:10;3.38;;;0.80;;
50759;SDS011;36733;48.442;-4.470;2022-07-24T03:06:36;2.70;;;0.80;;
50759;SDS011;36733;48.442;-4.470;2022-07-24T03:09:02;1.20;;;0.77;;
50759;SDS011;36733;48.442;-4.470;2022-07-24T03:13:53;2.17;;;0.75;;
50759;SDS011;36733;48.442;-4.470;2022-07-24T03:16:18;3.60;;;0.82;;
50759;SDS011;36733;48.442;-4.470;2022-07-24T03:18:44;2.95;;;0.55;;
50759;SDS011;36733;48.442;-4.470;2022-07-24T03:21:12;1.98;;;0.63;;
50759;SDS011;36733;48.442;-4.470;2022-07-24T03:23:38;3.13;;;0.90;;
50759;SDS011;36733;48.442;-4.470;2022-07-24T03:26:04;2.17;;;0.73;;
50759;SDS011;36733;48.442;-4.470;2022-07-24T03:28:29;1.38;;;0.63;;
50759;SDS011;36733;48.442;-4.470;2022-07-24T03:30:55;1.17;;;0.60;;
50759;SDS011;36733;48.442;-4.470;2022-07-24T03:33:20;1.52;;;0.70;;
50759;SDS011;36733;48.442;-4.470;2022-07-24T03:35:46;2.30;;;0.90;;
50759;SDS011;36733;48.442;-4.470;2022-07-24T03:38:11;1.13;;;0.60;;
50759;SDS011;36733;48.442;-4.470;2022-07-24T03:40:37;2.85;;;0.90;;
50759;SDS011;36733;48.442;-4.470;2022-07-24T03:43:02;1.80;;;0.73;;
50759;SDS011;36733;48.442;-4.470;2022-07-24T03:45:27;1.57;;;0.70;;
50759;SDS011;36733;48.442;-4.470;2022-07-24T03:47:53;1.53;;;0.70;;
50759;SDS011;36733;48.442;-4.470;2022-07-24T03:50:18;1.98;;;0.60;;
50759;SDS011;36733;48.442;-4.470;2022-07-24T03:52:44;1.65;;;0.60;;
50759;SDS011;36733;48.442;-4.470;2022-07-24T03:55:09;1.30;;;0.65;;
50759;SDS011;36733;48.442;-4.470;2022-07-24T03:57:35;1.80;;;0.60;;
50759;SDS011;36733;48.442;-4.470;2022-07-24T04:00:00;0.57;;;0.47;;
50759;SDS011;36733;48.442;-4.470;2022-07-24T04:02:25;2.90;;;0.70;;
50759;SDS011;36733;48.442;-4.470;2022-07-24T04:04:51;1.17;;;0.77;;
50759;SDS011;36733;48.442;-4.470;2022-07-24T04:07:16;2.83;;;1.03;;
50759;SDS011;36733;48.442;-4.470;2022-07-24T04:09:42;1.15;;;0.60;;
50759;SDS011;36733;48.442;-4.470;2022-07-24T04:12:07;1.23;;;0.53;;
50759;SDS011;36733;48.442;-4.470;2022-07-24T04:14:33;2.97;;;0.80;;
50759;SDS011;36733;48.442;-4.470;2022-07-24T04:16:58;0.80;;;0.60;;
50759;SDS011;36733;48.442;-4.470;2022-07-24T04:19:24;2.87;;;0.80;;
50759;SDS011;36733;48.442;-4.470;2022-07-24T04:21:49;3.10;;;0.90;;
50759;SDS011;36733;48.442;-4.470;2022-07-24T04:24:15;1.70;;;0.53;;
50759;SDS011;36733;48.442;-4.470;2022-07-24T04:26:40;1.98;;;0.68;;
50759;SDS011;36733;48.442;-4.470;2022-07-24T04:29:06;1.45;;;0.60;;
50759;SDS011;36733;48.442;-4.470;2022-07-24T04:31:31;2.60;;;0.70;;
50759;SDS011;36733;48.442;-4.470;2022-07-24T04:33:56;2.63;;;0.60;;
50759;SDS011;36733;48.442;-4.470;2022-07-24T04:36:22;0.60;;;0.55;;
50759;SDS011;36733;48.442;-4.470;2022-07-24T04:38:48;2.75;;;0.80;;
50759;SDS011;36733;48.442;-4.470;2022-07-24T04:41:13;2.03;;;0.73;;
50759;SDS011;36733;48.442;-4.470;2022-07-24T04:43:41;2.63;;;0.88;;
50759;SDS011;36733;48.442;-4.470;2022-07-24T04:46:06;1.60;;;0.60;;
50759;SDS011;36733;48.442;-4.470;2022-07-24T04:48:31;0.70;;;0.50;;
50759;SDS011;36733;48.442;-4.470;2022-07-24T04:50:57;4.20;;;0.70;;
50759;SDS011;36733;48.442;-4.470;2022-07-24T04:53:22;1.50;;;0.70;;
50759;SDS011;36733;48.442;-4.470;2022-07-24T04:55:48;3.33;;;0.82;;
50759;SDS011;36733;48.442;-4.470;2022-07-24T04:58:13;3.38;;;0.73;;
50759;SDS011;36733;48.442;-4.470;2022-07-24T05:00:39;2.77;;;0.60;;
50759;SDS011;36733;48.442;-4.470;2022-07-24T05:03:04;1.10;;;0.52;;
50759;SDS011;36733;48.442;-4.470;2022-07-24T05:05:30;1.77;;;0.70;;
50759;SDS011;36733;48.442;-4.470;2022-07-24T05:07:55;2.63;;;0.73;;
50759;SDS011;36733;48.442;-4.470;2022-07-24T05:10:21;2.00;;;0.77;;
50759;SDS011;36733;48.442;-4.470;2022-07-24T05:12:46;1.77;;;0.70;;
50759;SDS011;36733;48.442;-4.470;2022-07-24T05:15:12;1.38;;;0.70;;
50759;SDS011;36733;48.442;-4.470;2022-07-24T05:17:37;1.45;;;0.57;;
50759;SDS011;36733;48.442;-4.470;2022-07-24T05:20:04;1.50;;;0.65;;
50759;SDS011;36733;48.442;-4.470;2022-07-24T05:22:29;3.22;;;0.68;;
50759;SDS011;36733;48.442;-4.470;2022-07-24T05:24:55;1.33;;;0.63;;
50759;SDS011;36733;48.442;-4.470;2022-07-24T05:27:21;2.58;;;0.80;;
50759;SDS011;36733;48.442;-4.470;2022-07-24T05:29:46;1.58;;;0.55;;
50759;SDS011;36733;48.442;-4.470;2022-07-24T05:32:12;1.30;;;0.73;;
50759;SDS011;36733;48.442;-4.470;2022-07-24T05:34:38;1.55;;;0.80;;
50759;SDS011;36733;48.442;-4.470;2022-07-24T05:37:04;1.98;;;0.88;;
50759;SDS011;36733;48.442;-4.470;2022-07-24T05:39:29;4.40;;;1.13;;
50759;SDS011;36733;48.442;-4.470;2022-07-24T05:41:55;1.13;;;0.70;;
50759;SDS011;36733;48.442;-4.470;2022-07-24T05:44:20;6.57;;;0.83;;
50759;SDS011;36733;48.442;-4.470;2022-07-24T05:46:46;0.90;;;0.60;;
50759;SDS011;36733;48.442;-4.470;2022-07-24T05:49:11;1.45;;;0.60;;
50759;SDS011;36733;48.442;-4.470;2022-07-24T05:51:37;1.40;;;0.70;;
50759;SDS011;36733;48.442;-4.470;2022-07-24T05:54:02;1.55;;;0.73;;
50759;SDS011;36733;48.442;-4.470;2022-07-24T05:56:28;2.03;;;0.50;;
50759;SDS011;36733;48.442;-4.470;2022-07-24T05:58:54;3.15;;;0.80;;
50759;SDS011;36733;48.442;-4.470;2022-07-24T06:01:19;7.30;;;0.80;;
50759;SDS011;36733;48.442;-4.470;2022-07-24T06:03:45;1.23;;;0.70;;
50759;SDS011;36733;48.442;-4.470;2022-07-24T06:06:10;1.23;;;0.60;;
50759;SDS011;36733;48.442;-4.470;2022-07-24T06:08:35;1.08;;;0.50;;
50759;SDS011;36733;48.442;-4.470;2022-07-24T06:11:01;0.98;;;0.60;;
50759;SDS011;36733;48.442;-4.470;2022-07-24T06:13:26;1.25;;;0.65;;
50759;SDS011;36733;48.442;-4.470;2022-07-24T06:15:52;2.30;;;0.80;;
50759;SDS011;36733;48.442;-4.470;2022-07-24T06:18:17;0.88;;;0.70;;
50759;SDS011;36733;48.442;-4.470;2022-07-24T06:20:43;2.03;;;0.73;;
50759;SDS011;36733;48.442;-4.470;2022-07-24T06:23:09;1.50;;;0.77;;
50759;SDS011;36733;48.442;-4.470;2022-07-24T06:25:34;1.80;;;0.60;;
50759;SDS011;36733;48.442;-4.470;2022-07-24T06:28:00;3.10;;;0.60;;
50759;SDS011;36733;48.442;-4.470;2022-07-24T06:30:26;1.77;;;0.60;;
50759;SDS011;36733;48.442;-4.470;2022-07-24T06:32:53;1.55;;;0.70;;
50759;SDS011;36733;48.442;-4.470;2022-07-24T06:35:23;1.48;;;0.77;;
50759;SDS011;36733;48.442;-4.470;2022-07-24T06:37:49;3.28;;;0.77;;
50759;SDS011;36733;48.442;-4.470;2022-07-24T06:40:15;2.50;;;0.60;;
50759;SDS011;36733;48.442;-4.470;2022-07-24T06:42:41;2.38;;;0.80;;
50759;SDS011;36733;48.442;-4.470;2022-07-24T06:45:07;1.08;;;0.65;;
50759;SDS011;36733;48.442;-4.470;2022-07-24T06:47:33;3.20;;;1.05;;
50759;SDS011;36733;48.442;-4.470;2022-07-24T06:49:59;1.98;;;0.88;;
50759;SDS011;36733;48.442;-4.470;2022-07-24T06:52:24;1.60;;;0.80;;
50759;SDS011;36733;48.442;-4.470;2022-07-24T06:54:50;1.30;;;0.60;;
50759;SDS011;36733;48.442;-4.470;2022-07-24T06:57:15;2.85;;;0.70;;
50759;SDS011;36733;48.442;-4.470;2022-07-24T06:59:42;2.63;;;0.60;;
50759;SDS011;36733;48.442;-4.470;2022-07-24T07:02:08;1.05;;;0.68;;
50759;SDS011;36733;48.442;-4.470;2022-07-24T07:04:33;2.27;;;0.70;;
50759;SDS011;36733;48.442;-4.470;2022-07-24T07:06:59;1.23;;;0.55;;
50759;SDS011;36733;48.442;-4.470;2022-07-24T07:09:24;2.05;;;0.80;;
50759;SDS011;36733;48.442;-4.470;2022-07-24T07:11:50;1.17;;;0.60;;
50759;SDS011;36733;48.442;-4.470;2022-07-24T07:14:16;1.27;;;0.68;;
50759;SDS011;36733;48.442;-4.470;2022-07-24T07:16:41;2.17;;;0.60;;
50759;SDS011;36733;48.442;-4.470;2022-07-24T07:19:07;2.13;;;0.73;;
50759;SDS011;36733;48.442;-4.470;2022-07-24T07:21:32;2.08;;;0.70;;
50759;SDS011;36733;48.442;-4.470;2022-07-24T07:23:57;2.08;;;0.73;;
50759;SDS011;36733;48.442;-4.470;2022-07-24T07:26:23;3.70;;;1.20;;
50759;SDS011;36733;48.442;-4.470;2022-07-24T07:28:48;3.67;;;0.70;;
50759;SDS011;36733;48.442;-4.470;2022-07-24T07:31:14;1.73;;;0.70;;
50759;SDS011;36733;48.442;-4.470;2022-07-24T07:33:39;3.67;;;0.65;;
50759;SDS011;36733;48.442;-4.470;2022-07-24T07:36:05;0.93;;;0.73;;
50759;SDS011;36733;48.442;-4.470;2022-07-24T07:38:31;1.75;;;0.70;;
50759;SDS011;36733;48.442;-4.470;2022-07-24T07:40:56;1.98;;;0.90;;
50759;SDS011;36733;48.442;-4.470;2022-07-24T07:43:22;1.88;;;0.60;;
50759;SDS011;36733;48.442;-4.470;2022-07-24T07:45:47;3.67;;;1.00;;
50759;SDS011;36733;48.442;-4.470;2022-07-24T07:48:12;3.78;;;0.82;;
50759;SDS011;36733;48.442;-4.470;2022-07-24T07:50:38;1.40;;;0.60;;
50759;SDS011;36733;48.442;-4.470;2022-07-24T07:53:03;4.57;;;0.70;;
50759;SDS011;36733;48.442;-4.470;2022-07-24T07:55:29;2.47;;;1.00;;
50759;SDS011;36733;48.442;-4.470;2022-07-24T07:57:55;6.03;;;1.10;;
50759;SDS011;36733;48.442;-4.470;2022-07-24T08:00:20;3.70;;;0.95;;
50759;SDS011;36733;48.442;-4.470;2022-07-24T08:02:46;4.68;;;1.20;;
50759;SDS011;36733;48.442;-4.470;2022-07-24T08:05:11;3.00;;;0.65;;
50759;SDS011;36733;48.442;-4.470;2022-07-24T08:07:36;5.03;;;0.88;;
50759;SDS011;36733;48.442;-4.470;2022-07-24T08:10:02;5.10;;;1.10;;
50759;SDS011;36733;48.442;-4.470;2022-07-24T08:12:29;4.88;;;1.33;;
50759;SDS011;36733;48.442;-4.470;2022-07-24T08:14:54;6.05;;;1.23;;
50759;SDS011;36733;48.442;-4.470;2022-07-24T08:17:20;18.93;;;1.70;;
50759;SDS011;36733;48.442;-4.470;2022-07-24T08:19:45;12.45;;;1.63;;
50759;SDS011;36733;48.442;-4.470;2022-07-24T08:22:11;22.05;;;2.00;;
50759;SDS011;36733;48.442;-4.470;2022-07-24T08:24:36;13.75;;;2.40;;
50759;SDS011;36733;48.442;-4.470;2022-07-24T08:27:02;18.00;;;2.55;;
50759;SDS011;36733;48.442;-4.470;2022-07-24T08:29:28;19.30;;;2.47;;
50759;SDS011;36733;48.442;-4.470;2022-07-24T08:31:53;18.00;;;2.50;;
50759;SDS011;36733;48.442;-4.470;2022-07-24T08:34:19;21.60;;;2.08;;
50759;SDS011;36733;48.442;-4.470;2022-07-24T08:36:44;11.15;;;1.92;;
50759;SDS011;36733;48.442;-4.470;2022-07-24T08:39:13;23.73;;;3.08;;
50759;SDS011;36733;48.442;-4.470;2022-07-24T08:41:40;25.90;;;3.00;;
50759;SDS011;36733;48.442;-4.470;2022-07-24T08:44:06;11.63;;;2.33;;
50759;SDS011;36733;48.442;-4.470;2022-07-24T08:46:32;27.33;;;4.00;;
50759;SDS011;36733;48.442;-4.470;2022-07-24T08:48:58;17.20;;;3.33;;
50759;SDS011;36733;48.442;-4.470;2022-07-24T08:51:28;15.00;;;3.40;;
50759;SDS011;36733;48.442;-4.470;2022-07-24T08:53:56;23.48;;;4.47;;
50759;SDS011;36733;48.442;-4.470;2022-07-24T08:56:22;23.42;;;4.63;;
50759;SDS011;36733;48.442;-4.470;2022-07-24T08:58:47;13.90;;;3.55;;
50759;SDS011;36733;48.442;-4.470;2022-07-24T09:01:13;21.63;;;3.87;;
50759;SDS011;36733;48.442;-4.470;2022-07-24T09:03:39;20.07;;;4.80;;
50759;SDS011;36733;48.442;-4.470;2022-07-24T09:06:09;18.17;;;4.20;;
50759;SDS011;36733;48.442;-4.470;2022-07-24T09:11:01;21.15;;;4.78;;
50759;SDS011;36733;48.442;-4.470;2022-07-24T09:13:28;20.33;;;5.13;;
50759;SDS011;36733;48.442;-4.470;2022-07-24T09:16:18;27.48;;;5.53;;
50759;SDS011;36733;48.442;-4.470;2022-07-24T09:19:06;35.30;;;5.97;;
50759;SDS011;36733;48.442;-4.470;2022-07-24T09:21:35;33.33;;;4.57;;
50759;SDS011;36733;48.442;-4.470;2022-07-24T09:24:12;27.48;;;4.53;;
50759;SDS011;36733;48.442;-4.470;2022-07-24T09:26:51;19.70;;;4.90;;
50759;SDS011;36733;48.442;-4.470;2022-07-24T09:29:21;21.63;;;4.20;;
50759;SDS011;36733;48.442;-4.470;2022-07-24T09:31:51;18.77;;;4.22;;
50759;SDS011;36733;48.442;-4.470;2022-07-24T09:34:17;26.30;;;3.83;;
50759;SDS011;36733;48.442;-4.470;2022-07-24T09:36:54;13.25;;;3.55;;
50759;SDS011;36733;48.442;-4.470;2022-07-24T09:39:20;17.60;;;4.25;;
50759;SDS011;36733;48.442;-4.470;2022-07-24T09:41:50;18.05;;;3.53;;
50759;SDS011;36733;48.442;-4.470;2022-07-24T09:44:17;16.70;;;3.20;;
50759;SDS011;36733;48.442;-4.470;2022-07-24T09:46:45;13.18;;;2.92;;
50759;SDS011;36733;48.442;-4.470;2022-07-24T09:49:47;12.15;;;3.33;;
50759;SDS011;36733;48.442;-4.470;2022-07-24T09:54:43;11.60;;;3.60;;
50759;SDS011;36733;48.442;-4.470;2022-07-24T09:57:28;16.20;;;3.88;;
50759;SDS011;36733;48.442;-4.470;2022-07-24T10:02:22;9.90;;;2.95;;
50759;SDS011;36733;48.442;-4.470;2022-07-24T10:04:58;12.48;;;2.80;;
50759;SDS011;36733;48.442;-4.470;2022-07-24T10:07:24;11.38;;;2.72;;
50759;SDS011;36733;48.442;-4.470;2022-07-24T10:09:51;7.85;;;2.72;;
50759;SDS011;36733;48.442;-4.470;2022-07-24T10:12:19;9.80;;;2.83;;
50759;SDS011;36733;48.442;-4.470;2022-07-24T10:14:46;11.60;;;2.63;;
50759;SDS011;36733;48.442;-4.470;2022-07-24T10:17:13;7.72;;;2.38;;
50759;SDS011;36733;48.442;-4.470;2022-07-24T10:22:11;6.57;;;2.10;;
50759;SDS011;36733;48.442;-4.470;2022-07-24T10:29:51;5.95;;;2.00;;
50759;SDS011;36733;48.442;-4.470;2022-07-24T10:32:18;4.75;;;1.92;;
50759;SDS011;36733;48.442;-4.470;2022-07-24T10:37:48;5.95;;;1.88;;
50759;SDS011;36733;48.442;-4.470;2022-07-24T10:40:45;5.10;;;1.60;;
50759;SDS011;36733;48.442;-4.470;2022-07-24T10:43:18;5.40;;;1.80;;
50759;SDS011;36733;48.442;-4.470;2022-07-24T10:53:25;6.97;;;1.63;;
50759;SDS011;36733;48.442;-4.470;2022-07-24T10:56:15;3.35;;;1.40;;
50759;SDS011;36733;48.442;-4.470;2022-07-24T11:03:52;5.75;;;1.73;;
50759;SDS011;36733;48.442;-4.470;2022-07-24T11:06:17;6.33;;;1.73;;
50759;SDS011;36733;48.442;-4.470;2022-07-24T11:08:51;4.27;;;1.63;;
50759;SDS011;36733;48.442;-4.470;2022-07-24T11:11:18;4.80;;;1.60;;
50759;SDS011;36733;48.442;-4.470;2022-07-24T11:13:50;4.28;;;1.00;;
50759;SDS011;36733;48.442;-4.470;2022-07-24T11:16:23;4.97;;;1.00;;
50759;SDS011;36733;48.442;-4.470;2022-07-24T11:26:47;5.00;;;1.30;;
50759;SDS011;36733;48.442;-4.470;2022-07-24T11:29:23;12.80;;;1.50;;
50759;SDS011;36733;48.442;-4.470;2022-07-24T11:32:14;5.28;;;1.40;;
50759;SDS011;36733;48.442;-4.470;2022-07-24T11:34:49;5.78;;;1.52;;
50759;SDS011;36733;48.442;-4.470;2022-07-24T11:37:16;5.88;;;1.13;;
50759;SDS011;36733;48.442;-4.470;2022-07-24T11:39:42;4.75;;;1.30;;
50759;SDS011;36733;48.442;-4.470;2022-07-24T11:42:09;5.13;;;1.30;;
50759;SDS011;36733;48.442;-4.470;2022-07-24T11:44:43;3.60;;;1.20;;
50759;SDS011;36733;48.442;-4.470;2022-07-24T11:52:05;8.10;;;1.57;;
50759;SDS011;36733;48.442;-4.470;2022-07-24T11:54:30;4.50;;;1.13;;
50759;SDS011;36733;48.442;-4.470;2022-07-24T11:56:56;5.85;;;1.27;;
50759;SDS011;36733;48.442;-4.470;2022-07-24T12:02:04;4.47;;;1.05;;
50759;SDS011;36733;48.442;-4.470;2022-07-24T12:06:56;4.15;;;1.02;;
50759;SDS011;36733;48.442;-4.470;2022-07-24T12:09:22;4.32;;;1.13;;
50759;SDS011;36733;48.442;-4.470;2022-07-24T12:11:47;2.38;;;0.85;;
50759;SDS011;36733;48.442;-4.470;2022-07-24T12:14:16;3.40;;;1.20;;
50759;SDS011;36733;48.442;-4.470;2022-07-24T12:16:44;4.53;;;0.80;;
50759;SDS011;36733;48.442;-4.470;2022-07-24T12:19:16;2.65;;;1.00;;
50759;SDS011;36733;48.442;-4.470;2022-07-24T12:21:42;2.22;;;0.82;;
50759;SDS011;36733;48.442;-4.470;2022-07-24T12:24:09;3.75;;;0.90;;
50759;SDS011;36733;48.442;-4.470;2022-07-24T12:26:47;2.40;;;0.63;;
50759;SDS011;36733;48.442;-4.470;2022-07-24T12:29:13;5.53;;;0.95;;
50759;SDS011;36733;48.442;-4.470;2022-07-24T12:31:39;5.03;;;1.10;;
50759;SDS011;36733;48.442;-4.470;2022-07-24T12:34:04;3.95;;;1.25;;
50759;SDS011;36733;48.442;-4.470;2022-07-24T12:36:30;14.40;;;1.40;;
50759;SDS011;36733;48.442;-4.470;2022-07-24T12:38:56;3.88;;;1.27;;
50759;SDS011;36733;48.442;-4.470;2022-07-24T12:43:52;11.25;;;1.58;;
50759;SDS011;36733;48.442;-4.470;2022-07-24T12:46:23;4.78;;;1.35;;
50759;SDS011;36733;48.442;-4.470;2022-07-24T12:49:13;3.80;;;0.85;;
50759;SDS011;36733;48.442;-4.470;2022-07-24T12:51:45;5.63;;;1.05;;
50759;SDS011;36733;48.442;-4.470;2022-07-24T12:54:19;11.45;;;1.65;;
50759;SDS011;36733;48.442;-4.470;2022-07-24T12:57:03;3.00;;;0.95;;
50759;SDS011;36733;48.442;-4.470;2022-07-24T12:59:34;3.35;;;1.02;;
50759;SDS011;36733;48.442;-4.470;2022-07-24T13:02:05;11.05;;;1.20;;
50759;SDS011;36733;48.442;-4.470;2022-07-24T13:04:47;2.63;;;0.88;;
50759;SDS011;36733;48.442;-4.470;2022-07-24T13:07:14;2.42;;;0.70;;
50759;SDS011;36733;48.442;-4.470;2022-07-24T13:09:41;5.38;;;0.73;;
50759;SDS011;36733;48.442;-4.470;2022-07-24T13:12:07;4.70;;;0.80;;
50759;SDS011;36733;48.442;-4.470;2022-07-24T13:14:33;2.17;;;1.52;;
50759;SDS011;36733;48.442;-4.470;2022-07-24T13:17:05;4.30;;;0.90;;
50759;SDS011;36733;48.442;-4.470;2022-07-24T13:19:38;7.15;;;1.00;;
50759;SDS011;36733;48.442;-4.470;2022-07-24T13:22:05;5.88;;;0.85;;
50759;SDS011;36733;48.442;-4.470;2022-07-24T13:24:31;4.95;;;1.00;;
50759;SDS011;36733;48.442;-4.470;2022-07-24T13:26:58;2.72;;;0.70;;
50759;SDS011;36733;48.442;-4.470;2022-07-24T13:29:24;4.75;;;0.80;;
50759;SDS011;36733;48.442;-4.470;2022-07-24T13:34:15;9.50;;;1.15;;
50759;SDS011;36733;48.442;-4.470;2022-07-24T13:36:41;5.32;;;1.17;;
50759;SDS011;36733;48.442;-4.470;2022-07-24T13:39:07;2.65;;;1.02;;
50759;SDS011;36733;48.442;-4.470;2022-07-24T13:41:33;3.83;;;0.75;;
50759;SDS011;36733;48.442;-4.470;2022-07-24T13:43:59;3.95;;;0.85;;
50759;SDS011;36733;48.442;-4.470;2022-07-24T13:46:25;4.15;;;0.88;;
50759;SDS011;36733;48.442;-4.470;2022-07-24T13:48:52;1.05;;;0.57;;
50759;SDS011;36733;48.442;-4.470;2022-07-24T13:51:18;3.03;;;0.70;;
50759;SDS011;36733;48.442;-4.470;2022-07-24T13:53:43;1.52;;;0.60;;
50759;SDS011;36733;48.442;-4.470;2022-07-24T13:56:09;2.63;;;0.80;;
50759;SDS011;36733;48.442;-4.470;2022-07-24T13:58:36;1.70;;;0.93;;
50759;SDS011;36733;48.442;-4.470;2022-07-24T14:03:34;3.70;;;0.98;;
50759;SDS011;36733;48.442;-4.470;2022-07-24T14:06:01;5.57;;;0.90;;
50759;SDS011;36733;48.442;-4.470;2022-07-24T14:08:27;8.13;;;1.15;;
50759;SDS011;36733;48.442;-4.470;2022-07-24T14:10:53;2.17;;;0.60;;
50759;SDS011;36733;48.442;-4.470;2022-07-24T14:13:18;1.38;;;0.75;;
50759;SDS011;36733;48.442;-4.470;2022-07-24T14:15:44;2.70;;;0.73;;
50759;SDS011;36733;48.442;-4.470;2022-07-24T14:18:09;2.92;;;0.68;;
50759;SDS011;36733;48.442;-4.470;2022-07-24T14:20:35;2.30;;;0.70;;
50759;SDS011;36733;48.442;-4.470;2022-07-24T14:23:00;1.73;;;0.70;;
50759;SDS011;36733;48.442;-4.470;2022-07-24T14:25:26;7.50;;;1.25;;
50759;SDS011;36733;48.442;-4.470;2022-07-24T14:27:51;4.63;;;0.80;;
50759;SDS011;36733;48.442;-4.470;2022-07-24T14:30:16;6.28;;;1.98;;
50759;SDS011;36733;48.442;-4.470;2022-07-24T14:32:42;4.68;;;1.25;;
50759;SDS011;36733;48.442;-4.470;2022-07-24T14:35:08;4.80;;;1.38;;
50759;SDS011;36733;48.442;-4.470;2022-07-24T14:37:35;6.55;;;1.15;;
50759;SDS011;36733;48.442;-4.470;2022-07-24T14:40:02;3.72;;;1.00;;
50759;SDS011;36733;48.442;-4.470;2022-07-24T14:42:29;4.28;;;0.95;;
50759;SDS011;36733;48.442;-4.470;2022-07-24T14:44:55;5.20;;;1.00;;
50759;SDS011;36733;48.442;-4.470;2022-07-24T14:47:21;7.63;;;1.38;;
50759;SDS011;36733;48.442;-4.470;2022-07-24T14:49:46;6.43;;;0.82;;
50759;SDS011;36733;48.442;-4.470;2022-07-24T14:52:12;4.45;;;1.30;;
50759;SDS011;36733;48.442;-4.470;2022-07-24T14:54:38;6.70;;;0.90;;
50759;SDS011;36733;48.442;-4.470;2022-07-24T14:57:04;3.40;;;1.00;;
50759;SDS011;36733;48.442;-4.470;2022-07-24T14:59:29;3.42;;;1.02;;
50759;SDS011;36733;48.442;-4.470;2022-07-24T15:01:55;5.63;;;0.88;;
50759;SDS011;36733;48.442;-4.470;2022-07-24T15:04:20;11.73;;;1.33;;
50759;SDS011;36733;48.442;-4.470;2022-07-24T15:06:46;2.53;;;0.93;;
50759;SDS011;36733;48.442;-4.470;2022-07-24T15:09:11;3.15;;;2.80;;
50759;SDS011;36733;48.442;-4.470;2022-07-24T15:11:37;2.58;;;1.13;;
50759;SDS011;36733;48.442;-4.470;2022-07-24T15:14:03;2.47;;;0.77;;
50759;SDS011;36733;48.442;-4.470;2022-07-24T15:18:54;2.88;;;1.33;;
50759;SDS011;36733;48.442;-4.470;2022-07-24T15:21:19;4.97;;;1.05;;
50759;SDS011;36733;48.442;-4.470;2022-07-24T15:23:45;3.42;;;0.90;;
50759;SDS011;36733;48.442;-4.470;2022-07-24T15:26:10;3.42;;;0.80;;
50759;SDS011;36733;48.442;-4.470;2022-07-24T15:28:36;5.68;;;1.35;;
50759;SDS011;36733;48.442;-4.470;2022-07-24T15:31:01;2.58;;;1.10;;
50759;SDS011;36733;48.442;-4.470;2022-07-24T15:33:27;3.80;;;1.15;;